Rechercher aéroport 
image banner adimage banner adimage banner ad
image banner ad

47CA - Mountains Community Hospital

Situé à Lake Arrowhead, United States

ICAO - 47CA, IATA -

Données fournies par Airmate  

Information générale

Coordonnées: N34°15'56" W117°10'4"
Élévation : 5318 feet MSL.
Variation magnétique : 14° East
Voir autres Aéroports à California

Données opérationnelles

Special qualification required
Heure actuelle UTC:
Heure actuelle locale:
Météo à : KSBD - San Bernardino Intl ( 20 km )
METAR: KSBD 020520Z AUTO 25005KT 10SM CLR 26/06 A3006 RMK AO2 T02610055
TAF: KSBD 012323Z 0200/0224 28011KT P6SM FEW100 FM020400 VRB04KT P6SM SKC FM022100 26011KT P6SM SKC
Voir NOTAMs / SUP AIP / TFR affectant cet aéroport [VIEW]
Fréquences de communication: [VIEW]

Pistes:

Coordonnées de l'aéroport

Adresse: Lake Arrowhead United States

Vue satellite de 47CA